createdAt,value
2023-02-25T00:00:59.434Z,5.20
2023-02-25T00:02:04.153Z,5.10
2023-02-25T00:03:00.046Z,4.70
2023-02-25T00:04:00.363Z,4.10
2023-02-25T00:05:00.671Z,4.10
2023-02-25T00:06:00.981Z,4.10
2023-02-25T00:07:01.245Z,4.30
2023-02-25T00:08:01.540Z,4.20
2023-02-25T00:09:01.834Z,4.50
2023-02-25T00:10:02.625Z,4.30
2023-02-25T00:11:02.350Z,4.00
2023-02-25T00:12:02.697Z,3.60
2023-02-25T00:13:17.319Z,3.80
2023-02-25T00:14:04.256Z,3.70
2023-02-25T00:15:03.574Z,3.40
2023-02-25T00:16:03.907Z,4.30
2023-02-25T00:17:04.295Z,3.90
2023-02-25T00:18:04.485Z,3.10
2023-02-25T00:19:04.839Z,2.70
2023-02-25T00:20:05.051Z,2.80
2023-02-25T00:21:05.333Z,2.70
2023-02-25T00:22:05.591Z,2.60
2023-02-25T00:23:05.953Z,2.50
2023-02-25T00:24:16.051Z,2.60
2023-02-25T00:25:07.503Z,2.50
2023-02-25T00:26:06.768Z,2.50
2023-02-25T00:27:07.053Z,2.50
2023-02-25T00:28:07.330Z,2.80
2023-02-25T00:29:07.676Z,3.20
2023-02-25T00:30:07.997Z,3.80
2023-02-25T00:31:08.397Z,3.80
2023-02-25T00:32:09.190Z,4.10
2023-02-25T00:33:08.852Z,4.10
2023-02-25T00:34:09.144Z,3.70
2023-02-25T00:35:09.408Z,3.80
2023-02-25T00:36:09.690Z,3.60
2023-02-25T00:37:10.203Z,3.70
2023-02-25T00:38:15.984Z,3.70
2023-02-25T00:39:11.623Z,3.50
2023-02-25T00:40:10.904Z,4.00
2023-02-25T00:41:11.237Z,3.80
2023-02-25T00:42:11.541Z,4.00
2023-02-25T00:43:11.810Z,4.10
2023-02-25T00:44:12.080Z,4.20
2023-02-25T00:45:12.398Z,4.40
2023-02-25T00:46:12.734Z,4.70
2023-02-25T00:47:13.063Z,4.50
2023-02-25T00:48:13.334Z,4.70
2023-02-25T00:49:27.043Z,4.60
2023-02-25T00:50:15.000Z,3.90
2023-02-25T00:51:14.329Z,3.70
2023-02-25T00:52:15.568Z,3.60
2023-02-25T00:53:14.949Z,4.00
2023-02-25T00:54:15.229Z,3.70
2023-02-25T00:55:15.723Z,3.70
2023-02-25T00:56:15.828Z,3.80
2023-02-25T00:57:16.105Z,4.00
2023-02-25T00:58:16.391Z,4.50
2023-02-25T00:59:16.685Z,4.50
2023-02-25T01:00:17.022Z,4.60
2023-02-25T01:01:17.369Z,4.30
2023-02-25T01:02:17.544Z,4.50
2023-02-25T01:03:17.844Z,4.60
2023-02-25T01:04:18.144Z,4.70
2023-02-25T01:05:18.472Z,4.60
2023-02-25T01:06:18.638Z,4.30
2023-02-25T01:07:19.049Z,4.50
2023-02-25T01:08:19.224Z,4.60
2023-02-25T01:09:19.498Z,4.50
2023-02-25T01:10:19.831Z,4.40
2023-02-25T01:11:20.112Z,4.30
2023-02-25T01:12:20.444Z,4.30
2023-02-25T01:13:20.814Z,4.30
2023-02-25T01:14:21.025Z,5.00
2023-02-25T01:15:21.266Z,5.80
2023-02-25T01:16:22.029Z,5.60
2023-02-25T01:17:21.962Z,5.60
2023-02-25T01:18:22.284Z,6.20
2023-02-25T01:19:22.542Z,6.50
2023-02-25T01:20:22.849Z,6.10
2023-02-25T01:21:23.182Z,6.10
2023-02-25T01:22:23.354Z,5.90
2023-02-25T01:23:23.760Z,5.70
2023-02-25T01:24:24.002Z,6.10
2023-02-25T01:25:24.729Z,5.70
2023-02-25T01:26:24.944Z,5.40
2023-02-25T01:27:24.950Z,5.70
2023-02-25T01:28:25.142Z,5.80
2023-02-25T01:29:25.469Z,5.60
2023-02-25T01:30:25.746Z,5.60
2023-02-25T01:31:26.160Z,5.80
2023-02-25T01:32:26.447Z,5.50
2023-02-25T01:33:26.683Z,5.30
2023-02-25T01:34:27.001Z,5.50
2023-02-25T01:35:27.337Z,5.20
2023-02-25T01:36:27.577Z,5.10
2023-02-25T01:37:27.884Z,5.00
2023-02-25T01:38:28.186Z,4.80
2023-02-25T01:39:28.562Z,4.70
2023-02-25T01:40:28.712Z,4.60
2023-02-25T01:41:29.041Z,4.30
2023-02-25T01:42:29.855Z,4.70
2023-02-25T01:43:29.612Z,4.70
2023-02-25T01:44:29.972Z,4.60
2023-02-25T01:45:30.204Z,4.60
2023-02-25T01:46:30.584Z,4.80
2023-02-25T01:47:30.839Z,4.90
2023-02-25T01:48:30.973Z,4.70
2023-02-25T01:49:31.382Z,4.80
2023-02-25T01:50:31.548Z,5.00
2023-02-25T01:51:31.802Z,5.00
2023-02-25T01:52:32.120Z,4.90
2023-02-25T01:53:32.457Z,5.00
2023-02-25T01:54:32.769Z,4.90
2023-02-25T01:55:33.100Z,4.80
2023-02-25T01:56:33.399Z,5.00
2023-02-25T01:57:33.716Z,4.70
2023-02-25T01:58:33.949Z,5.50
2023-02-25T01:59:34.349Z,5.40
2023-02-25T02:00:34.606Z,5.00
2023-02-25T02:01:34.943Z,5.30
2023-02-25T02:02:35.169Z,5.20
2023-02-25T02:03:35.520Z,5.40
2023-02-25T02:04:35.814Z,5.50
2023-02-25T02:05:36.109Z,5.60
2023-02-25T02:06:36.396Z,5.70
2023-02-25T02:07:36.766Z,6.00
2023-02-25T02:08:37.024Z,5.90
2023-02-25T02:09:37.433Z,6.20
2023-02-25T02:10:37.697Z,5.90
2023-02-25T02:11:37.940Z,6.40
2023-02-25T02:12:38.100Z,6.00
2023-02-25T02:13:38.405Z,5.80
2023-02-25T02:14:38.694Z,5.10
2023-02-25T02:15:38.997Z,4.90
2023-02-25T02:16:39.361Z,4.00
2023-02-25T02:17:39.543Z,3.80
2023-02-25T02:18:39.804Z,3.60
2023-02-25T02:19:40.167Z,3.80
2023-02-25T02:20:40.434Z,3.80
2023-02-25T02:21:40.856Z,3.80
2023-02-25T02:22:41.091Z,5.00
2023-02-25T02:23:41.373Z,5.10
2023-02-25T02:24:41.680Z,5.10
2023-02-25T02:25:41.981Z,5.00
2023-02-25T02:26:42.296Z,4.20
2023-02-25T02:27:42.584Z,4.50
2023-02-25T02:28:42.898Z,3.70
2023-02-25T02:29:43.417Z,3.80
2023-02-25T02:30:43.538Z,3.60
2023-02-25T02:31:44.026Z,3.20
2023-02-25T02:32:44.089Z,3.30
2023-02-25T02:33:44.440Z,3.10
2023-02-25T02:34:44.761Z,2.90
2023-02-25T02:35:45.102Z,2.90
2023-02-25T02:36:45.405Z,3.00
2023-02-25T02:37:45.731Z,2.90
2023-02-25T02:38:46.026Z,2.80
2023-02-25T02:39:46.353Z,3.30
2023-02-25T02:40:46.620Z,3.10
2023-02-25T02:41:46.966Z,3.50
2023-02-25T02:42:47.209Z,3.10
2023-02-25T02:43:47.712Z,3.40
2023-02-25T02:44:47.846Z,3.30
2023-02-25T02:45:48.154Z,3.20
2023-02-25T02:46:48.395Z,2.90
2023-02-25T02:47:48.739Z,3.00
2023-02-25T02:48:49.065Z,3.70
2023-02-25T02:49:49.372Z,3.30
2023-02-25T02:50:49.672Z,2.90
2023-02-25T02:51:49.994Z,3.30
2023-02-25T02:52:50.304Z,2.70
2023-02-25T02:53:50.619Z,2.90
2023-02-25T02:54:50.885Z,2.70
2023-02-25T02:55:51.244Z,2.80
2023-02-25T02:56:51.571Z,2.60
2023-02-25T02:57:51.803Z,2.90
2023-02-25T02:58:52.137Z,2.50
2023-02-25T02:59:52.455Z,2.40
2023-02-25T03:00:52.778Z,2.60
2023-02-25T03:01:53.056Z,2.50
2023-02-25T03:02:53.355Z,2.40
2023-02-25T03:03:53.654Z,2.50
2023-02-25T03:04:53.921Z,2.40
2023-02-25T03:05:54.282Z,2.40
2023-02-25T03:06:54.600Z,2.50
2023-02-25T03:07:54.942Z,2.20
2023-02-25T03:08:55.177Z,2.60
2023-02-25T03:09:55.492Z,2.50
2023-02-25T03:10:55.780Z,2.60
2023-02-25T03:11:56.050Z,2.30
2023-02-25T03:12:56.308Z,2.70
2023-02-25T03:13:56.640Z,2.40
2023-02-25T03:14:56.921Z,2.60
2023-02-25T03:15:57.188Z,2.50
2023-02-25T03:16:57.520Z,2.50
2023-02-25T03:17:57.740Z,3.80
2023-02-25T03:18:58.098Z,4.00
2023-02-25T03:19:58.410Z,4.70
2023-02-25T03:20:58.713Z,5.80
2023-02-25T03:21:59.014Z,5.60
2023-02-25T03:22:59.274Z,4.40
2023-02-25T03:23:59.617Z,3.80
2023-02-25T03:24:59.910Z,3.60
2023-02-25T03:26:00.311Z,3.10
2023-02-25T03:27:00.461Z,2.90
2023-02-25T03:28:00.807Z,2.60
2023-02-25T03:29:01.113Z,2.50
2023-02-25T03:30:01.476Z,2.90
2023-02-25T03:31:01.892Z,2.50
2023-02-25T03:32:02.175Z,2.20
2023-02-25T03:33:02.337Z,2.40
2023-02-25T03:34:02.691Z,2.40
2023-02-25T03:35:02.940Z,2.30
2023-02-25T03:36:03.305Z,2.40
2023-02-25T03:37:03.571Z,2.10
2023-02-25T03:38:03.924Z,2.40
2023-02-25T03:39:04.203Z,2.60
2023-02-25T03:40:04.542Z,2.40
2023-02-25T03:41:04.856Z,2.80
2023-02-25T03:42:05.159Z,2.30
2023-02-25T03:43:08.162Z,2.80
2023-02-25T03:44:05.707Z,2.60
2023-02-25T03:45:06.007Z,2.30
2023-02-25T03:46:06.414Z,2.50
2023-02-25T03:47:06.590Z,2.90
2023-02-25T03:48:06.850Z,2.80
2023-02-25T03:49:07.116Z,3.10
2023-02-25T03:50:07.473Z,3.10
2023-02-25T03:51:07.745Z,3.40
2023-02-25T03:52:08.081Z,3.70
2023-02-25T03:53:08.405Z,3.40
2023-02-25T03:54:08.668Z,3.00
2023-02-25T03:55:08.958Z,3.00
2023-02-25T03:56:09.289Z,3.30
2023-02-25T03:57:09.583Z,3.40
2023-02-25T03:58:09.894Z,3.00
2023-02-25T03:59:10.122Z,2.90
2023-02-25T04:00:10.460Z,3.50
2023-02-25T04:01:10.706Z,3.10
2023-02-25T04:02:11.101Z,3.50
2023-02-25T04:03:11.248Z,3.50
2023-02-25T04:04:11.645Z,3.00
2023-02-25T04:05:11.903Z,3.20
2023-02-25T04:06:12.262Z,2.70
2023-02-25T04:07:12.488Z,3.10
2023-02-25T04:08:12.775Z,2.90
2023-02-25T04:09:13.083Z,2.90
2023-02-25T04:10:13.357Z,2.80
2023-02-25T04:11:13.678Z,3.00
2023-02-25T04:12:14.820Z,3.20
2023-02-25T04:13:14.273Z,2.80
2023-02-25T04:14:14.628Z,2.70
2023-02-25T04:15:14.785Z,3.00
2023-02-25T04:16:15.204Z,2.90
2023-02-25T04:17:15.387Z,2.50
2023-02-25T04:18:15.670Z,2.70
2023-02-25T04:19:16.007Z,2.70
2023-02-25T04:20:16.321Z,2.90
2023-02-25T04:21:16.519Z,2.60
2023-02-25T04:22:16.840Z,2.70
2023-02-25T04:23:17.109Z,2.70
2023-02-25T04:24:17.449Z,2.80
2023-02-25T04:25:17.678Z,2.70
2023-02-25T04:26:18.039Z,2.50
2023-02-25T04:27:18.311Z,2.80
2023-02-25T04:28:18.638Z,2.60
2023-02-25T04:29:18.931Z,2.40
2023-02-25T04:30:19.247Z,2.30
2023-02-25T04:31:19.753Z,2.60
2023-02-25T04:32:20.154Z,2.40
2023-02-25T04:33:20.207Z,2.90
2023-02-25T04:34:20.530Z,2.30
2023-02-25T04:35:20.823Z,2.60
2023-02-25T04:36:21.273Z,2.30
2023-02-25T04:37:21.360Z,2.50
2023-02-25T04:38:21.732Z,2.70
2023-02-25T04:39:22.032Z,2.50
2023-02-25T04:40:22.339Z,2.70
2023-02-25T04:41:22.613Z,2.40
2023-02-25T04:42:22.924Z,2.80
2023-02-25T04:43:23.200Z,2.80
2023-02-25T04:44:23.474Z,2.50
2023-02-25T04:45:26.375Z,2.70
2023-02-25T04:46:24.466Z,2.80
2023-02-25T04:47:24.404Z,2.40
2023-02-25T04:48:24.718Z,2.50
2023-02-25T04:49:25.022Z,2.60
2023-02-25T04:50:25.363Z,2.60
2023-02-25T04:51:25.640Z,2.80
2023-02-25T04:52:25.930Z,2.60
2023-02-25T04:53:26.208Z,2.60
2023-02-25T04:54:26.576Z,2.80
2023-02-25T04:55:26.917Z,2.50
2023-02-25T04:56:27.209Z,2.90
2023-02-25T04:57:27.519Z,3.00
2023-02-25T04:58:27.747Z,3.30
2023-02-25T04:59:28.111Z,3.30
2023-02-25T05:00:28.426Z,3.40
2023-02-25T05:01:28.767Z,3.20
2023-02-25T05:02:29.047Z,3.20
2023-02-25T05:03:29.360Z,3.70
2023-02-25T05:04:29.752Z,3.80
2023-02-25T05:05:29.959Z,4.00
2023-02-25T05:06:30.283Z,3.90
2023-02-25T05:07:30.557Z,3.50
2023-02-25T05:08:30.883Z,3.30
2023-02-25T05:09:31.196Z,3.40
2023-02-25T05:10:31.523Z,3.40
2023-02-25T05:11:31.810Z,3.50
2023-02-25T05:12:32.245Z,3.40
2023-02-25T05:13:33.356Z,3.20
2023-02-25T05:14:33.144Z,3.10
2023-02-25T05:15:33.096Z,2.90
2023-02-25T05:16:33.402Z,3.30
2023-02-25T05:17:33.703Z,2.70
2023-02-25T05:18:33.998Z,2.80
2023-02-25T05:19:34.272Z,2.80
2023-02-25T05:20:34.789Z,2.70
2023-02-25T05:21:34.842Z,2.70
2023-02-25T05:22:35.548Z,2.60
2023-02-25T05:23:35.412Z,2.70
2023-02-25T05:24:35.754Z,3.20
2023-02-25T05:25:36.047Z,2.90
2023-02-25T05:26:36.361Z,2.80
2023-02-25T05:27:36.586Z,3.20
2023-02-25T05:28:36.879Z,2.60
2023-02-25T05:29:37.259Z,3.20
2023-02-25T05:30:37.541Z,3.40
2023-02-25T05:31:37.941Z,3.00
2023-02-25T05:32:38.337Z,3.00
2023-02-25T05:33:38.485Z,2.80
2023-02-25T05:34:38.868Z,2.70
2023-02-25T05:35:39.125Z,2.60
2023-02-25T05:36:39.520Z,2.60
2023-02-25T05:37:39.693Z,2.70
2023-02-25T05:38:40.044Z,3.10
2023-02-25T05:39:40.314Z,2.90
2023-02-25T05:40:40.651Z,2.80
2023-02-25T05:41:40.960Z,2.70
2023-02-25T05:42:41.261Z,2.90
2023-02-25T05:43:41.619Z,3.10
2023-02-25T05:44:41.862Z,2.80
2023-02-25T05:45:42.237Z,3.00
2023-02-25T05:46:42.578Z,2.90
2023-02-25T05:47:42.741Z,3.00
2023-02-25T05:48:43.123Z,2.90
2023-02-25T05:49:43.328Z,2.90
2023-02-25T05:50:43.964Z,3.30
2023-02-25T05:51:43.939Z,2.70
2023-02-25T05:52:44.302Z,2.80
2023-02-25T05:53:44.460Z,2.70
2023-02-25T05:54:44.848Z,3.00
2023-02-25T05:55:45.124Z,2.80
2023-02-25T05:56:45.466Z,2.90
2023-02-25T05:57:45.610Z,2.80
2023-02-25T05:58:45.920Z,2.90
2023-02-25T05:59:46.212Z,2.70
2023-02-25T06:00:46.610Z,2.70
2023-02-25T06:01:46.817Z,2.90
2023-02-25T06:02:47.088Z,2.80
2023-02-25T06:03:47.272Z,2.70
2023-02-25T06:04:47.653Z,2.70
2023-02-25T06:05:48.106Z,2.60
2023-02-25T06:06:48.179Z,3.20
2023-02-25T06:07:48.381Z,2.70
2023-02-25T06:08:48.757Z,3.10
2023-02-25T06:09:49.005Z,2.80
2023-02-25T06:10:49.360Z,2.80
2023-02-25T06:11:49.599Z,2.80
2023-02-25T06:12:49.863Z,2.90
2023-02-25T06:13:50.068Z,3.00
2023-02-25T06:14:50.433Z,3.10
2023-02-25T06:15:50.640Z,3.10
2023-02-25T06:16:51.116Z,2.90
2023-02-25T06:17:51.333Z,2.90
2023-02-25T06:18:51.684Z,3.10
2023-02-25T06:19:51.879Z,3.50
2023-02-25T06:20:55.134Z,3.10
2023-02-25T06:21:52.377Z,3.00
2023-02-25T06:22:52.653Z,3.30
2023-02-25T06:23:52.862Z,3.10
2023-02-25T06:24:53.246Z,3.10
2023-02-25T06:25:53.474Z,3.00
2023-02-25T06:26:53.905Z,3.00
2023-02-25T06:27:54.057Z,3.10
2023-02-25T06:28:54.421Z,3.20
2023-02-25T06:29:54.660Z,3.10
2023-02-25T06:30:54.967Z,2.90
2023-02-25T06:31:55.305Z,2.90
2023-02-25T06:32:55.472Z,3.20
2023-02-25T06:33:55.687Z,2.90
2023-02-25T06:34:55.965Z,2.90
2023-02-25T06:35:56.206Z,2.80
2023-02-25T06:36:56.475Z,3.10
2023-02-25T06:37:56.677Z,3.50
2023-02-25T06:38:57.011Z,2.80
2023-02-25T06:39:57.343Z,2.90
2023-02-25T06:40:57.765Z,2.60
2023-02-25T06:41:57.941Z,3.00
2023-02-25T06:42:58.305Z,2.90
2023-02-25T06:43:58.527Z,2.90
2023-02-25T06:44:58.769Z,2.80
2023-02-25T06:45:59.012Z,2.80
2023-02-25T06:46:59.254Z,2.70
2023-02-25T06:48:00.350Z,2.70
2023-02-25T06:48:59.838Z,2.50
2023-02-25T06:50:02.330Z,2.60
2023-02-25T06:51:00.425Z,2.80
2023-02-25T06:52:00.663Z,3.10
2023-02-25T06:53:00.944Z,2.90
2023-02-25T06:54:01.140Z,2.80
2023-02-25T06:55:01.526Z,2.70
2023-02-25T06:56:01.744Z,2.60
2023-02-25T06:57:02.112Z,2.60
2023-02-25T06:58:02.361Z,2.80
2023-02-25T06:59:02.623Z,2.80
2023-02-25T07:00:02.838Z,3.00
2023-02-25T07:01:03.277Z,2.60
2023-02-25T07:02:03.478Z,2.90
2023-02-25T07:03:03.727Z,2.70
2023-02-25T07:04:04.045Z,2.60
2023-02-25T07:05:04.249Z,2.60
2023-02-25T07:06:04.643Z,2.80
2023-02-25T07:07:04.780Z,2.90
2023-02-25T07:08:04.980Z,2.70
2023-02-25T07:09:05.406Z,2.80
2023-02-25T07:10:05.603Z,3.20
2023-02-25T07:11:05.948Z,2.70
2023-02-25T07:12:06.171Z,2.80
2023-02-25T07:13:06.495Z,2.50
2023-02-25T07:14:06.868Z,2.80
2023-02-25T07:15:07.190Z,2.70
2023-02-25T07:16:07.420Z,2.70
2023-02-25T07:17:07.728Z,2.70
2023-02-25T07:18:07.965Z,3.20
2023-02-25T07:19:08.235Z,3.10
2023-02-25T07:20:08.496Z,2.70
2023-02-25T07:21:08.740Z,2.70
2023-02-25T07:22:08.981Z,2.80
2023-02-25T07:23:09.279Z,2.60
2023-02-25T07:24:09.499Z,2.90
2023-02-25T07:25:09.956Z,3.10
2023-02-25T07:26:10.177Z,2.40
2023-02-25T07:27:10.420Z,2.70
2023-02-25T07:28:10.670Z,2.90
2023-02-25T07:29:10.925Z,2.60
2023-02-25T07:30:11.152Z,2.60
2023-02-25T07:31:11.646Z,3.10
2023-02-25T07:32:12.021Z,2.80
2023-02-25T07:33:12.210Z,2.80
2023-02-25T07:34:12.354Z,2.90
2023-02-25T07:35:12.590Z,2.80
2023-02-25T07:36:12.811Z,2.80
2023-02-25T07:37:13.198Z,2.70
2023-02-25T07:38:13.498Z,3.00
2023-02-25T07:39:13.726Z,2.80
2023-02-25T07:40:14.002Z,2.70
2023-02-25T07:41:14.248Z,2.80
2023-02-25T07:42:14.484Z,2.80
2023-02-25T07:43:14.751Z,2.80
2023-02-25T07:44:14.967Z,3.50
2023-02-25T07:45:15.237Z,2.80
2023-02-25T07:46:15.530Z,2.80
2023-02-25T07:47:15.800Z,2.70
2023-02-25T07:48:16.032Z,2.80
2023-02-25T07:49:16.321Z,2.90
2023-02-25T07:50:16.546Z,2.90
2023-02-25T07:51:16.882Z,2.60
2023-02-25T07:52:17.153Z,2.80
2023-02-25T07:53:17.422Z,2.60
2023-02-25T07:54:17.654Z,2.90
2023-02-25T07:55:17.909Z,2.60
2023-02-25T07:56:18.178Z,2.70
2023-02-25T07:57:18.385Z,4.20
2023-02-25T07:58:18.647Z,3.00
2023-02-25T07:59:18.919Z,2.60
2023-02-25T08:00:19.146Z,2.50
2023-02-25T08:01:19.395Z,3.00
2023-02-25T08:02:19.706Z,2.90
2023-02-25T08:03:19.961Z,2.80
2023-02-25T08:04:20.268Z,2.80
2023-02-25T08:05:20.496Z,2.50
2023-02-25T08:06:20.738Z,2.70
2023-02-25T08:07:21.004Z,2.40
2023-02-25T08:08:21.238Z,2.60
2023-02-25T08:09:21.521Z,2.60
2023-02-25T08:10:21.748Z,2.60
2023-02-25T08:11:22.330Z,2.50
2023-02-25T08:12:22.257Z,2.70
2023-02-25T08:13:22.483Z,2.70
2023-02-25T08:14:22.711Z,2.60
2023-02-25T08:15:23.067Z,2.90
2023-02-25T08:16:23.365Z,2.90
2023-02-25T08:17:23.616Z,2.90
2023-02-25T08:18:23.847Z,2.70
2023-02-25T08:19:24.126Z,2.40
2023-02-25T08:20:24.344Z,2.70
2023-02-25T08:21:25.093Z,3.00
2023-02-25T08:22:24.971Z,3.00
2023-02-25T08:23:25.235Z,2.50
2023-02-25T08:24:25.472Z,2.70
2023-02-25T08:25:25.715Z,2.60
2023-02-25T08:26:26.009Z,2.80
2023-02-25T08:27:26.293Z,2.60
2023-02-25T08:28:26.531Z,2.60
2023-02-25T08:29:26.773Z,2.90
2023-02-25T08:30:27.060Z,2.60
2023-02-25T08:31:27.903Z,2.90
2023-02-25T08:32:28.586Z,2.60
2023-02-25T08:33:27.941Z,2.80
2023-02-25T08:34:28.193Z,2.70
2023-02-25T08:35:28.413Z,2.80
2023-02-25T08:36:28.643Z,3.10
2023-02-25T08:37:28.915Z,2.70
2023-02-25T08:38:29.157Z,2.80
2023-02-25T08:39:29.428Z,2.90
2023-02-25T08:40:29.661Z,2.90
2023-02-25T08:41:30.028Z,2.90
2023-02-25T08:42:30.260Z,5.30
2023-02-25T08:43:30.548Z,3.60
2023-02-25T08:44:30.759Z,5.30
2023-02-25T08:45:31.034Z,3.10
2023-02-25T08:46:31.292Z,3.20
2023-02-25T08:47:31.647Z,3.10
2023-02-25T08:48:31.870Z,3.00
2023-02-25T08:49:32.061Z,2.80
2023-02-25T08:50:32.298Z,2.90
2023-02-25T08:51:32.645Z,2.80
2023-02-25T08:52:32.832Z,2.90
2023-02-25T08:53:33.100Z,2.70
2023-02-25T08:54:33.338Z,3.00
2023-02-25T08:55:33.592Z,2.80
2023-02-25T08:56:33.866Z,3.00
2023-02-25T08:57:34.121Z,3.10
2023-02-25T08:58:34.341Z,3.10
2023-02-25T08:59:34.695Z,3.40
2023-02-25T09:00:35.025Z,3.40
2023-02-25T09:01:35.291Z,3.40
2023-02-25T09:02:35.518Z,3.20
2023-02-25T09:03:35.766Z,3.20
2023-02-25T09:04:36.027Z,3.40
2023-02-25T09:05:37.174Z,3.40
2023-02-25T09:06:36.555Z,3.30
2023-02-25T09:07:36.806Z,3.80
2023-02-25T09:08:37.037Z,3.30
2023-02-25T09:09:37.309Z,3.20
2023-02-25T09:10:49.454Z,3.60
2023-02-25T09:11:39.281Z,3.40
2023-02-25T09:12:38.080Z,3.00
2023-02-25T09:13:38.351Z,4.20
2023-02-25T09:14:38.610Z,3.10
2023-02-25T09:15:38.903Z,3.20
2023-02-25T09:16:39.219Z,2.90
2023-02-25T09:17:39.480Z,3.20
2023-02-25T09:18:39.722Z,3.00
2023-02-25T09:19:40.020Z,2.70
2023-02-25T09:20:40.230Z,3.00
2023-02-25T09:21:40.513Z,3.10
2023-02-25T09:22:40.755Z,3.40
2023-02-25T09:23:41.010Z,3.60
2023-02-25T09:24:41.267Z,2.80
2023-02-25T09:25:41.542Z,3.10
2023-02-25T09:26:41.799Z,2.90
2023-02-25T09:27:42.071Z,2.90
2023-02-25T09:28:42.326Z,2.60
2023-02-25T09:29:42.684Z,3.00
2023-02-25T09:30:43.002Z,2.90
2023-02-25T09:31:43.433Z,3.10
2023-02-25T09:32:43.592Z,3.00
2023-02-25T09:33:43.782Z,2.80
2023-02-25T09:34:44.008Z,2.90
2023-02-25T09:35:44.374Z,2.70
2023-02-25T09:36:44.588Z,2.80
2023-02-25T09:37:44.929Z,2.60
2023-02-25T09:38:45.093Z,2.40
2023-02-25T09:39:45.366Z,2.50
2023-02-25T09:40:45.636Z,2.90
2023-02-25T09:41:45.995Z,2.40
2023-02-25T09:42:46.210Z,2.30
2023-02-25T09:43:46.495Z,2.90
2023-02-25T09:44:46.785Z,2.70
2023-02-25T09:45:47.141Z,2.80
2023-02-25T09:46:47.379Z,2.80
2023-02-25T09:47:48.135Z,3.20
2023-02-25T09:48:47.884Z,2.70
2023-02-25T09:49:48.180Z,2.90
2023-02-25T09:50:48.425Z,3.00
2023-02-25T09:51:48.790Z,3.10
2023-02-25T09:52:49.016Z,3.30
2023-02-25T09:53:49.284Z,3.00
2023-02-25T09:54:49.564Z,2.80
2023-02-25T09:55:49.797Z,3.30
2023-02-25T09:56:50.073Z,2.90
2023-02-25T09:57:50.339Z,3.20
2023-02-25T09:58:50.552Z,2.90
2023-02-25T09:59:50.826Z,3.10
2023-02-25T10:00:51.131Z,2.60
2023-02-25T10:01:51.351Z,2.50
2023-02-25T10:02:51.709Z,2.50
2023-02-25T10:03:51.956Z,2.00
2023-02-25T10:04:52.232Z,2.20
2023-02-25T10:05:52.500Z,2.20
2023-02-25T10:06:52.758Z,2.50
2023-02-25T10:07:53.067Z,2.70
2023-02-25T10:08:53.293Z,2.50
2023-02-25T10:09:53.588Z,3.00
2023-02-25T10:10:53.856Z,3.10
2023-02-25T10:11:54.118Z,3.10
2023-02-25T10:12:54.440Z,3.10
2023-02-25T10:13:54.779Z,3.30
2023-02-25T10:14:55.016Z,3.10
2023-02-25T10:15:55.284Z,3.10
2023-02-25T10:16:55.576Z,3.10
2023-02-25T10:17:55.870Z,3.10
2023-02-25T10:18:56.142Z,3.30
2023-02-25T10:19:56.422Z,3.40
2023-02-25T10:20:56.734Z,3.50
2023-02-25T10:21:57.041Z,3.00
2023-02-25T10:22:57.364Z,3.50
2023-02-25T10:23:57.602Z,3.40
2023-02-25T10:24:57.876Z,3.60
2023-02-25T10:26:01.575Z,3.20
2023-02-25T10:27:00.314Z,3.20
2023-02-25T10:27:58.796Z,3.80
2023-02-25T10:28:58.882Z,4.20
2023-02-25T10:29:59.164Z,3.30
2023-02-25T10:30:59.523Z,5.50
2023-02-25T10:31:59.855Z,3.30
2023-02-25T10:33:00.046Z,3.30
2023-02-25T10:34:03.908Z,3.50
2023-02-25T10:35:00.688Z,3.40
2023-02-25T10:36:00.918Z,3.70
2023-02-25T10:37:01.168Z,3.80
2023-02-25T10:38:01.689Z,3.40
2023-02-25T10:39:01.866Z,3.50
2023-02-25T10:40:04.447Z,3.70
2023-02-25T10:41:02.364Z,3.40
2023-02-25T10:42:02.598Z,3.40
2023-02-25T10:43:02.923Z,4.20
2023-02-25T10:44:03.240Z,4.10
2023-02-25T10:45:03.486Z,4.00
2023-02-25T10:46:03.889Z,4.40
2023-02-25T10:47:04.012Z,3.60
2023-02-25T10:48:04.521Z,3.90
2023-02-25T10:49:04.804Z,3.50
2023-02-25T10:50:04.917Z,4.20
2023-02-25T10:51:05.137Z,3.60
2023-02-25T10:52:06.261Z,3.30
2023-02-25T10:53:05.638Z,4.20
2023-02-25T10:54:06.092Z,3.60
2023-02-25T10:55:06.269Z,3.30
2023-02-25T10:56:06.933Z,3.60
2023-02-25T10:57:06.750Z,3.30
2023-02-25T10:58:07.046Z,3.10
2023-02-25T10:59:07.305Z,4.20
2023-02-25T11:00:07.534Z,3.70
2023-02-25T11:01:09.114Z,2.90
2023-02-25T11:02:08.101Z,3.40
2023-02-25T11:03:08.361Z,3.30
2023-02-25T11:04:08.636Z,3.30
2023-02-25T11:05:08.872Z,3.40
2023-02-25T11:06:09.178Z,3.90
2023-02-25T11:07:09.385Z,3.50
2023-02-25T11:08:09.626Z,2.80
2023-02-25T11:09:09.956Z,3.40
2023-02-25T11:10:10.159Z,3.20
2023-02-25T11:11:10.469Z,2.80
2023-02-25T11:12:10.775Z,3.20
2023-02-25T11:13:10.968Z,3.30
2023-02-25T11:14:11.278Z,3.30
2023-02-25T11:15:11.517Z,3.40
2023-02-25T11:16:11.934Z,3.60
2023-02-25T11:17:12.099Z,3.60
2023-02-25T11:18:12.294Z,3.60
2023-02-25T11:19:12.912Z,3.30
2023-02-25T11:20:12.848Z,3.60
2023-02-25T11:21:13.143Z,3.00
2023-02-25T11:22:13.389Z,3.10
2023-02-25T11:23:13.873Z,3.30
2023-02-25T11:24:14.720Z,3.50
2023-02-25T11:25:14.227Z,2.90
2023-02-25T11:26:14.481Z,3.30
2023-02-25T11:27:14.920Z,3.20
2023-02-25T11:28:15.080Z,3.50
2023-02-25T11:29:15.296Z,3.20
2023-02-25T11:30:15.580Z,3.30
2023-02-25T11:31:16.674Z,3.30
2023-02-25T11:32:16.251Z,3.70
2023-02-25T11:33:16.475Z,3.50
2023-02-25T11:34:16.739Z,3.70
2023-02-25T11:35:17.240Z,3.40
2023-02-25T11:36:17.212Z,3.90
2023-02-25T11:37:17.503Z,3.30
2023-02-25T11:38:17.770Z,2.90
2023-02-25T11:39:18.020Z,4.00
2023-02-25T11:40:18.333Z,3.20
2023-02-25T11:41:18.583Z,3.50
2023-02-25T11:42:19.003Z,3.10
2023-02-25T11:43:19.115Z,3.10
2023-02-25T11:44:19.401Z,3.30
2023-02-25T11:45:19.610Z,2.90
2023-02-25T11:46:19.923Z,3.70
2023-02-25T11:47:20.172Z,3.80
2023-02-25T11:48:20.628Z,3.40
2023-02-25T11:49:20.677Z,3.20
2023-02-25T11:50:20.949Z,3.00
2023-02-25T11:51:21.189Z,2.90
2023-02-25T11:52:21.583Z,3.00
2023-02-25T11:53:21.882Z,2.90
2023-02-25T11:54:22.262Z,3.20
2023-02-25T11:55:22.358Z,3.00
2023-02-25T11:56:23.011Z,3.10
2023-02-25T11:57:22.940Z,3.00
2023-02-25T11:58:23.589Z,3.00
2023-02-25T11:59:23.459Z,2.80
2023-02-25T12:00:23.733Z,3.60
2023-02-25T12:01:24.157Z,3.10
2023-02-25T12:02:24.704Z,3.20
2023-02-25T12:03:24.619Z,3.10
2023-02-25T12:04:26.634Z,3.00
2023-02-25T12:05:25.294Z,3.50
2023-02-25T12:06:25.716Z,3.40
2023-02-25T12:07:27.923Z,3.50
2023-02-25T12:08:27.064Z,3.30
2023-02-25T12:09:26.198Z,3.30
2023-02-25T12:10:26.460Z,3.30
2023-02-25T12:11:26.792Z,3.10
2023-02-25T12:12:26.875Z,3.00
2023-02-25T12:13:27.203Z,3.10
2023-02-25T12:14:27.671Z,2.90
2023-02-25T12:15:28.814Z,3.30
2023-02-25T12:16:28.058Z,3.40
2023-02-25T12:17:28.274Z,3.30
2023-02-25T12:18:28.537Z,3.40
2023-02-25T12:19:28.832Z,3.40
2023-02-25T12:20:29.250Z,3.50
2023-02-25T12:21:29.425Z,3.30
2023-02-25T12:22:29.696Z,2.80
2023-02-25T12:23:29.943Z,3.30
2023-02-25T12:24:30.194Z,3.20
2023-02-25T12:25:30.437Z,3.20
2023-02-25T12:26:30.750Z,3.90
2023-02-25T12:27:30.972Z,4.30
2023-02-25T12:28:31.336Z,4.00
2023-02-25T12:29:32.040Z,3.40
2023-02-25T12:30:31.966Z,3.40
2023-02-25T12:31:32.235Z,3.70
2023-02-25T12:32:32.571Z,3.70
2023-02-25T12:33:33.867Z,3.80
2023-02-25T12:34:33.027Z,3.90
2023-02-25T12:35:33.309Z,3.70
2023-02-25T12:36:33.573Z,3.60
2023-02-25T12:37:34.924Z,3.50
2023-02-25T12:38:34.160Z,3.20
2023-02-25T12:39:34.503Z,3.50
2023-02-25T12:40:34.823Z,2.90
2023-02-25T12:41:35.020Z,2.90
2023-02-25T12:42:35.339Z,3.00
2023-02-25T12:43:35.592Z,3.30
2023-02-25T12:44:35.863Z,3.30
2023-02-25T12:45:36.257Z,4.60
2023-02-25T12:46:36.443Z,5.60
2023-02-25T12:47:36.706Z,5.10
2023-02-25T12:48:37.062Z,3.40
2023-02-25T12:49:37.483Z,3.40
2023-02-25T12:50:37.530Z,3.40
2023-02-25T12:51:38.138Z,3.10
2023-02-25T12:52:38.065Z,2.60
2023-02-25T12:53:38.307Z,2.40
2023-02-25T12:54:38.607Z,2.80
2023-02-25T12:55:38.831Z,2.80
2023-02-25T12:56:39.101Z,2.80
2023-02-25T12:57:39.366Z,2.90
2023-02-25T12:58:39.639Z,3.80
2023-02-25T12:59:39.948Z,3.40
2023-02-25T13:00:40.178Z,2.90
2023-02-25T13:01:40.408Z,2.80
2023-02-25T13:02:40.648Z,3.30
2023-02-25T13:03:40.995Z,2.90
2023-02-25T13:04:41.293Z,3.20
2023-02-25T13:05:41.503Z,3.30
2023-02-25T13:06:41.821Z,2.90
2023-02-25T13:07:42.088Z,3.50
2023-02-25T13:08:42.396Z,3.10
2023-02-25T13:09:42.603Z,3.20
2023-02-25T13:10:42.866Z,3.20
2023-02-25T13:12:10.170Z,3.90
2023-02-25T13:12:44.603Z,3.70
2023-02-25T13:13:43.701Z,3.30
2023-02-25T13:14:44.724Z,3.10
2023-02-25T13:15:44.220Z,2.80
2023-02-25T13:16:44.547Z,3.10
2023-02-25T13:17:44.752Z,3.20
2023-02-25T13:18:49.121Z,2.80
2023-02-25T13:19:46.560Z,2.90
2023-02-25T13:20:45.704Z,3.20
2023-02-25T13:21:45.964Z,3.50
2023-02-25T13:22:46.079Z,2.80